sensor_id;sensor_type;location;lat;lon;timestamp;P1;durP1;ratioP1;P2;durP2;ratioP2
19329;SDS011;9799;48.214;16.388;2024-03-02T00:01:51;60.83;;;42.33;;
19329;SDS011;9799;48.214;16.388;2024-03-02T00:05:12;61.00;;;42.63;;
19329;SDS011;9799;48.214;16.388;2024-03-02T00:08:35;66.57;;;44.90;;
19329;SDS011;9799;48.214;16.388;2024-03-02T00:11:56;64.47;;;43.60;;
19329;SDS011;9799;48.214;16.388;2024-03-02T00:15:29;66.30;;;44.67;;
19329;SDS011;9799;48.214;16.388;2024-03-02T00:19:06;65.57;;;42.43;;
19329;SDS011;9799;48.214;16.388;2024-03-02T00:22:29;62.30;;;44.07;;
19329;SDS011;9799;48.214;16.388;2024-03-02T00:25:51;58.93;;;43.47;;
19329;SDS011;9799;48.214;16.388;2024-03-02T00:29:13;65.77;;;42.63;;
19329;SDS011;9799;48.214;16.388;2024-03-02T00:32:39;65.47;;;42.90;;
19329;SDS011;9799;48.214;16.388;2024-03-02T00:36:04;67.10;;;43.50;;
19329;SDS011;9799;48.214;16.388;2024-03-02T00:39:26;57.90;;;42.80;;
19329;SDS011;9799;48.214;16.388;2024-03-02T00:42:47;62.63;;;41.80;;
19329;SDS011;9799;48.214;16.388;2024-03-02T00:46:09;68.03;;;44.07;;
19329;SDS011;9799;48.214;16.388;2024-03-02T00:49:33;66.10;;;42.77;;
19329;SDS011;9799;48.214;16.388;2024-03-02T00:52:54;61.20;;;43.23;;
19329;SDS011;9799;48.214;16.388;2024-03-02T00:56:15;62.00;;;43.13;;
19329;SDS011;9799;48.214;16.388;2024-03-02T00:59:36;59.90;;;42.03;;
19329;SDS011;9799;48.214;16.388;2024-03-02T01:02:57;64.10;;;43.70;;
19329;SDS011;9799;48.214;16.388;2024-03-02T01:06:20;58.43;;;42.93;;
19329;SDS011;9799;48.214;16.388;2024-03-02T01:09:42;67.40;;;44.70;;
19329;SDS011;9799;48.214;16.388;2024-03-02T01:13:04;59.37;;;42.70;;
19329;SDS011;9799;48.214;16.388;2024-03-02T01:16:25;63.70;;;44.70;;
19329;SDS011;9799;48.214;16.388;2024-03-02T01:19:46;62.83;;;43.90;;
19329;SDS011;9799;48.214;16.388;2024-03-02T01:23:09;63.03;;;42.63;;
19329;SDS011;9799;48.214;16.388;2024-03-02T01:26:30;61.47;;;42.40;;
19329;SDS011;9799;48.214;16.388;2024-03-02T01:29:51;65.07;;;46.27;;
19329;SDS011;9799;48.214;16.388;2024-03-02T01:33:14;64.63;;;44.83;;
19329;SDS011;9799;48.214;16.388;2024-03-02T01:36:35;62.20;;;42.60;;
19329;SDS011;9799;48.214;16.388;2024-03-02T01:39:57;60.73;;;44.43;;
19329;SDS011;9799;48.214;16.388;2024-03-02T01:43:18;61.97;;;44.60;;
19329;SDS011;9799;48.214;16.388;2024-03-02T01:46:40;65.63;;;44.53;;
19329;SDS011;9799;48.214;16.388;2024-03-02T01:50:01;60.37;;;46.27;;
19329;SDS011;9799;48.214;16.388;2024-03-02T01:53:22;62.70;;;45.90;;
19329;SDS011;9799;48.214;16.388;2024-03-02T01:56:45;63.40;;;46.13;;
19329;SDS011;9799;48.214;16.388;2024-03-02T02:00:07;65.77;;;46.13;;
19329;SDS011;9799;48.214;16.388;2024-03-02T02:03:29;58.83;;;42.73;;
19329;SDS011;9799;48.214;16.388;2024-03-02T02:06:50;65.00;;;46.53;;
19329;SDS011;9799;48.214;16.388;2024-03-02T02:10:11;60.83;;;44.70;;
19329;SDS011;9799;48.214;16.388;2024-03-02T02:13:34;60.57;;;44.97;;
19329;SDS011;9799;48.214;16.388;2024-03-02T02:16:55;59.10;;;44.20;;
19329;SDS011;9799;48.214;16.388;2024-03-02T02:20:16;63.83;;;46.57;;
19329;SDS011;9799;48.214;16.388;2024-03-02T02:23:39;62.97;;;45.07;;
19329;SDS011;9799;48.214;16.388;2024-03-02T02:27:05;66.87;;;43.90;;
19329;SDS011;9799;48.214;16.388;2024-03-02T02:30:28;57.47;;;41.87;;
19329;SDS011;9799;48.214;16.388;2024-03-02T02:33:51;62.57;;;43.30;;
19329;SDS011;9799;48.214;16.388;2024-03-02T02:37:12;57.70;;;41.30;;
19329;SDS011;9799;48.214;16.388;2024-03-02T02:40:34;56.43;;;42.13;;
19329;SDS011;9799;48.214;16.388;2024-03-02T02:43:55;65.03;;;45.47;;
19329;SDS011;9799;48.214;16.388;2024-03-02T02:47:17;60.73;;;42.80;;
19329;SDS011;9799;48.214;16.388;2024-03-02T02:50:37;62.97;;;43.47;;
19329;SDS011;9799;48.214;16.388;2024-03-02T02:53:59;57.80;;;42.60;;
19329;SDS011;9799;48.214;16.388;2024-03-02T02:57:21;58.93;;;42.27;;
19329;SDS011;9799;48.214;16.388;2024-03-02T03:00:42;64.93;;;42.90;;
19329;SDS011;9799;48.214;16.388;2024-03-02T03:04:03;57.67;;;43.53;;
19329;SDS011;9799;48.214;16.388;2024-03-02T03:07:24;62.07;;;41.30;;
19329;SDS011;9799;48.214;16.388;2024-03-02T03:10:45;60.40;;;42.73;;
19329;SDS011;9799;48.214;16.388;2024-03-02T03:14:08;53.90;;;39.37;;
19329;SDS011;9799;48.214;16.388;2024-03-02T03:17:29;60.50;;;41.13;;
19329;SDS011;9799;48.214;16.388;2024-03-02T03:20:51;60.37;;;42.13;;
19329;SDS011;9799;48.214;16.388;2024-03-02T03:24:12;58.70;;;42.97;;
19329;SDS011;9799;48.214;16.388;2024-03-02T03:27:33;58.60;;;41.33;;
19329;SDS011;9799;48.214;16.388;2024-03-02T03:30:55;56.13;;;42.17;;
19329;SDS011;9799;48.214;16.388;2024-03-02T03:34:16;58.70;;;41.23;;
19329;SDS011;9799;48.214;16.388;2024-03-02T03:37:37;62.60;;;43.10;;
19329;SDS011;9799;48.214;16.388;2024-03-02T03:40:59;56.83;;;40.70;;
19329;SDS011;9799;48.214;16.388;2024-03-02T03:44:20;55.83;;;39.63;;
19329;SDS011;9799;48.214;16.388;2024-03-02T03:47:42;59.13;;;40.57;;
19329;SDS011;9799;48.214;16.388;2024-03-02T03:51:03;56.27;;;38.93;;
19329;SDS011;9799;48.214;16.388;2024-03-02T03:54:25;57.80;;;42.27;;
19329;SDS011;9799;48.214;16.388;2024-03-02T03:57:46;58.77;;;40.27;;
19329;SDS011;9799;48.214;16.388;2024-03-02T04:01:07;58.73;;;39.50;;
19329;SDS011;9799;48.214;16.388;2024-03-02T04:04:30;65.87;;;41.63;;
19329;SDS011;9799;48.214;16.388;2024-03-02T04:07:51;64.17;;;42.00;;
19329;SDS011;9799;48.214;16.388;2024-03-02T04:11:12;59.27;;;40.67;;
19329;SDS011;9799;48.214;16.388;2024-03-02T04:14:33;67.77;;;42.07;;
19329;SDS011;9799;48.214;16.388;2024-03-02T04:17:54;65.07;;;41.43;;
19329;SDS011;9799;48.214;16.388;2024-03-02T04:21:17;66.00;;;41.47;;
19329;SDS011;9799;48.214;16.388;2024-03-02T04:24:38;62.23;;;43.43;;
19329;SDS011;9799;48.214;16.388;2024-03-02T04:27:59;68.93;;;41.93;;
19329;SDS011;9799;48.214;16.388;2024-03-02T04:31:20;58.47;;;40.27;;
19329;SDS011;9799;48.214;16.388;2024-03-02T04:34:42;58.50;;;41.17;;
19329;SDS011;9799;48.214;16.388;2024-03-02T04:38:05;66.30;;;42.33;;
19329;SDS011;9799;48.214;16.388;2024-03-02T04:41:26;64.90;;;41.30;;
19329;SDS011;9799;48.214;16.388;2024-03-02T04:44:47;61.93;;;41.20;;
19329;SDS011;9799;48.214;16.388;2024-03-02T04:48:08;56.63;;;40.90;;
19329;SDS011;9799;48.214;16.388;2024-03-02T04:51:29;59.07;;;40.43;;
19329;SDS011;9799;48.214;16.388;2024-03-02T04:54:52;63.40;;;41.33;;
19329;SDS011;9799;48.214;16.388;2024-03-02T04:58:48;54.90;;;37.67;;
19329;SDS011;9799;48.214;16.388;2024-03-02T05:02:09;60.70;;;39.67;;
19329;SDS011;9799;48.214;16.388;2024-03-02T05:05:33;57.50;;;38.43;;
19329;SDS011;9799;48.214;16.388;2024-03-02T05:08:54;55.10;;;37.13;;
19329;SDS011;9799;48.214;16.388;2024-03-02T05:12:17;59.50;;;38.97;;
19329;SDS011;9799;48.214;16.388;2024-03-02T05:16:06;54.00;;;35.60;;
19329;SDS011;9799;48.214;16.388;2024-03-02T05:19:27;55.33;;;35.97;;
19329;SDS011;9799;48.214;16.388;2024-03-02T05:22:49;59.80;;;36.53;;
19329;SDS011;9799;48.214;16.388;2024-03-02T05:26:10;63.80;;;37.80;;
19329;SDS011;9799;48.214;16.388;2024-03-02T05:29:33;83.83;;;37.87;;
19329;SDS011;9799;48.214;16.388;2024-03-02T05:32:54;64.40;;;35.80;;
19329;SDS011;9799;48.214;16.388;2024-03-02T05:36:15;61.27;;;34.90;;
19329;SDS011;9799;48.214;16.388;2024-03-02T05:39:36;62.70;;;36.13;;
19329;SDS011;9799;48.214;16.388;2024-03-02T05:42:58;53.30;;;33.93;;
19329;SDS011;9799;48.214;16.388;2024-03-02T05:46:20;52.60;;;34.00;;
19329;SDS011;9799;48.214;16.388;2024-03-02T05:49:41;51.00;;;31.83;;
19329;SDS011;9799;48.214;16.388;2024-03-02T05:53:03;49.10;;;32.87;;
19329;SDS011;9799;48.214;16.388;2024-03-02T05:56:24;44.43;;;30.20;;
19329;SDS011;9799;48.214;16.388;2024-03-02T05:59:45;41.33;;;30.93;;
19329;SDS011;9799;48.214;16.388;2024-03-02T06:03:08;40.07;;;29.30;;
19329;SDS011;9799;48.214;16.388;2024-03-02T06:06:30;43.00;;;30.53;;
19329;SDS011;9799;48.214;16.388;2024-03-02T06:09:52;56.63;;;30.10;;
19329;SDS011;9799;48.214;16.388;2024-03-02T06:13:13;54.03;;;29.83;;
19329;SDS011;9799;48.214;16.388;2024-03-02T06:16:34;48.07;;;32.50;;
19329;SDS011;9799;48.214;16.388;2024-03-02T06:19:56;61.93;;;32.77;;
19329;SDS011;9799;48.214;16.388;2024-03-02T06:23:18;55.00;;;34.17;;
19329;SDS011;9799;48.214;16.388;2024-03-02T06:26:39;52.77;;;34.33;;
19329;SDS011;9799;48.214;16.388;2024-03-02T06:30:01;54.97;;;34.20;;
19329;SDS011;9799;48.214;16.388;2024-03-02T06:33:23;50.23;;;32.00;;
19329;SDS011;9799;48.214;16.388;2024-03-02T06:36:45;56.67;;;32.07;;
19329;SDS011;9799;48.214;16.388;2024-03-02T06:40:07;48.47;;;33.37;;
19329;SDS011;9799;48.214;16.388;2024-03-02T06:43:29;52.00;;;31.30;;
19329;SDS011;9799;48.214;16.388;2024-03-02T06:46:50;48.83;;;32.43;;
19329;SDS011;9799;48.214;16.388;2024-03-02T06:50:11;53.37;;;34.60;;
19329;SDS011;9799;48.214;16.388;2024-03-02T06:53:34;52.53;;;30.90;;
19329;SDS011;9799;48.214;16.388;2024-03-02T06:56:55;47.87;;;31.27;;
19329;SDS011;9799;48.214;16.388;2024-03-02T07:00:16;48.83;;;32.43;;
19329;SDS011;9799;48.214;16.388;2024-03-02T07:03:39;47.00;;;30.77;;
19329;SDS011;9799;48.214;16.388;2024-03-02T07:07:00;46.83;;;32.23;;
19329;SDS011;9799;48.214;16.388;2024-03-02T07:10:23;46.60;;;31.53;;
19329;SDS011;9799;48.214;16.388;2024-03-02T07:13:44;44.80;;;31.07;;
19329;SDS011;9799;48.214;16.388;2024-03-02T07:17:05;49.57;;;31.87;;
19329;SDS011;9799;48.214;16.388;2024-03-02T07:20:26;46.70;;;32.03;;
19329;SDS011;9799;48.214;16.388;2024-03-02T07:23:48;44.83;;;31.57;;
19329;SDS011;9799;48.214;16.388;2024-03-02T07:27:10;45.63;;;30.60;;
19329;SDS011;9799;48.214;16.388;2024-03-02T07:30:32;44.23;;;31.77;;
19329;SDS011;9799;48.214;16.388;2024-03-02T07:33:54;45.03;;;30.73;;
19329;SDS011;9799;48.214;16.388;2024-03-02T07:37:15;49.43;;;33.47;;
19329;SDS011;9799;48.214;16.388;2024-03-02T07:40:36;47.57;;;31.33;;
19329;SDS011;9799;48.214;16.388;2024-03-02T07:43:58;46.13;;;31.87;;
19329;SDS011;9799;48.214;16.388;2024-03-02T07:47:20;43.80;;;28.57;;
19329;SDS011;9799;48.214;16.388;2024-03-02T07:50:41;39.57;;;27.80;;
19329;SDS011;9799;48.214;16.388;2024-03-02T07:54:02;44.63;;;29.63;;
19329;SDS011;9799;48.214;16.388;2024-03-02T07:57:24;40.20;;;28.53;;
19329;SDS011;9799;48.214;16.388;2024-03-02T08:00:47;39.93;;;29.47;;
19329;SDS011;9799;48.214;16.388;2024-03-02T08:04:08;42.10;;;29.50;;
19329;SDS011;9799;48.214;16.388;2024-03-02T08:07:29;43.27;;;28.97;;
19329;SDS011;9799;48.214;16.388;2024-03-02T08:10:50;43.87;;;29.37;;
19329;SDS011;9799;48.214;16.388;2024-03-02T08:14:12;38.03;;;28.87;;
19329;SDS011;9799;48.214;16.388;2024-03-02T08:17:34;46.07;;;30.33;;
19329;SDS011;9799;48.214;16.388;2024-03-02T08:20:55;42.73;;;30.27;;
19329;SDS011;9799;48.214;16.388;2024-03-02T08:24:17;43.80;;;29.83;;
19329;SDS011;9799;48.214;16.388;2024-03-02T08:27:39;49.03;;;31.07;;
19329;SDS011;9799;48.214;16.388;2024-03-02T08:31:00;44.47;;;31.10;;
19329;SDS011;9799;48.214;16.388;2024-03-02T08:34:23;46.07;;;30.27;;
19329;SDS011;9799;48.214;16.388;2024-03-02T08:37:44;46.67;;;31.23;;
19329;SDS011;9799;48.214;16.388;2024-03-02T08:41:05;44.53;;;30.53;;
19329;SDS011;9799;48.214;16.388;2024-03-02T08:44:27;49.03;;;32.13;;
19329;SDS011;9799;48.214;16.388;2024-03-02T08:47:49;47.50;;;31.30;;
19329;SDS011;9799;48.214;16.388;2024-03-02T08:51:11;48.67;;;31.93;;
19329;SDS011;9799;48.214;16.388;2024-03-02T08:54:32;42.53;;;30.17;;
19329;SDS011;9799;48.214;16.388;2024-03-02T08:57:55;42.90;;;30.63;;
19329;SDS011;9799;48.214;16.388;2024-03-02T09:01:16;41.97;;;30.60;;
19329;SDS011;9799;48.214;16.388;2024-03-02T09:04:38;45.73;;;31.93;;
19329;SDS011;9799;48.214;16.388;2024-03-02T09:08:01;45.63;;;33.17;;
19329;SDS011;9799;48.214;16.388;2024-03-02T09:11:23;41.63;;;30.37;;
19329;SDS011;9799;48.214;16.388;2024-03-02T09:14:44;45.43;;;32.57;;
19329;SDS011;9799;48.214;16.388;2024-03-02T09:18:06;48.93;;;33.10;;
19329;SDS011;9799;48.214;16.388;2024-03-02T09:21:27;47.63;;;32.57;;
19329;SDS011;9799;48.214;16.388;2024-03-02T09:24:50;47.93;;;33.70;;
19329;SDS011;9799;48.214;16.388;2024-03-02T09:28:12;49.90;;;34.77;;
19329;SDS011;9799;48.214;16.388;2024-03-02T09:31:33;50.23;;;35.30;;
19329;SDS011;9799;48.214;16.388;2024-03-02T09:34:59;53.60;;;35.80;;
19329;SDS011;9799;48.214;16.388;2024-03-02T09:38:20;49.90;;;34.83;;
19329;SDS011;9799;48.214;16.388;2024-03-02T09:41:43;53.23;;;35.53;;
19329;SDS011;9799;48.214;16.388;2024-03-02T09:45:05;47.30;;;36.17;;
19329;SDS011;9799;48.214;16.388;2024-03-02T09:48:27;59.57;;;41.27;;
19329;SDS011;9799;48.214;16.388;2024-03-02T09:51:48;57.23;;;39.03;;
19329;SDS011;9799;48.214;16.388;2024-03-02T09:55:10;68.03;;;43.90;;
19329;SDS011;9799;48.214;16.388;2024-03-02T09:58:33;60.73;;;42.23;;
19329;SDS011;9799;48.214;16.388;2024-03-02T10:01:55;58.73;;;40.77;;
19329;SDS011;9799;48.214;16.388;2024-03-02T10:05:24;58.80;;;42.33;;
19329;SDS011;9799;48.214;16.388;2024-03-02T10:08:46;54.53;;;40.90;;
19329;SDS011;9799;48.214;16.388;2024-03-02T10:12:09;55.60;;;40.53;;
19329;SDS011;9799;48.214;16.388;2024-03-02T10:15:33;59.20;;;40.20;;
19329;SDS011;9799;48.214;16.388;2024-03-02T10:18:55;56.30;;;41.00;;
19329;SDS011;9799;48.214;16.388;2024-03-02T10:22:16;56.77;;;40.37;;
19329;SDS011;9799;48.214;16.388;2024-03-02T10:25:37;54.00;;;37.57;;
19329;SDS011;9799;48.214;16.388;2024-03-02T10:28:59;50.33;;;38.50;;
19329;SDS011;9799;48.214;16.388;2024-03-02T10:32:23;54.00;;;37.63;;
19329;SDS011;9799;48.214;16.388;2024-03-02T10:35:44;53.30;;;40.10;;
19329;SDS011;9799;48.214;16.388;2024-03-02T10:39:06;55.97;;;40.30;;
19329;SDS011;9799;48.214;16.388;2024-03-02T10:42:28;53.13;;;40.00;;
19329;SDS011;9799;48.214;16.388;2024-03-02T10:45:49;52.13;;;39.07;;
19329;SDS011;9799;48.214;16.388;2024-03-02T10:49:12;53.27;;;39.27;;
19329;SDS011;9799;48.214;16.388;2024-03-02T10:52:33;52.03;;;39.57;;
19329;SDS011;9799;48.214;16.388;2024-03-02T10:55:56;69.27;;;47.20;;
19329;SDS011;9799;48.214;16.388;2024-03-02T10:59:23;51.23;;;38.07;;
19329;SDS011;9799;48.214;16.388;2024-03-02T11:02:49;56.17;;;40.10;;
19329;SDS011;9799;48.214;16.388;2024-03-02T11:06:13;56.83;;;41.60;;
19329;SDS011;9799;48.214;16.388;2024-03-02T11:09:35;49.27;;;37.03;;
19329;SDS011;9799;48.214;16.388;2024-03-02T11:13:02;54.37;;;38.53;;
19329;SDS011;9799;48.214;16.388;2024-03-02T11:16:27;51.33;;;37.47;;
19329;SDS011;9799;48.214;16.388;2024-03-02T11:19:54;58.10;;;41.13;;
19329;SDS011;9799;48.214;16.388;2024-03-02T11:23:17;52.33;;;38.90;;
19329;SDS011;9799;48.214;16.388;2024-03-02T11:26:38;57.33;;;38.37;;
19329;SDS011;9799;48.214;16.388;2024-03-02T11:30:00;50.63;;;37.13;;
19329;SDS011;9799;48.214;16.388;2024-03-02T11:33:23;55.63;;;38.67;;
19329;SDS011;9799;48.214;16.388;2024-03-02T11:36:46;56.67;;;39.53;;
19329;SDS011;9799;48.214;16.388;2024-03-02T11:40:09;60.23;;;44.80;;
19329;SDS011;9799;48.214;16.388;2024-03-02T11:43:31;54.87;;;42.10;;
19329;SDS011;9799;48.214;16.388;2024-03-02T11:46:52;58.50;;;40.57;;
19329;SDS011;9799;48.214;16.388;2024-03-02T11:50:27;50.80;;;38.40;;
19329;SDS011;9799;48.214;16.388;2024-03-02T11:53:49;57.07;;;41.23;;
19329;SDS011;9799;48.214;16.388;2024-03-02T11:57:13;52.90;;;39.80;;
19329;SDS011;9799;48.214;16.388;2024-03-02T12:00:35;57.67;;;40.80;;
19329;SDS011;9799;48.214;16.388;2024-03-02T12:03:56;55.00;;;40.60;;
19329;SDS011;9799;48.214;16.388;2024-03-02T12:07:21;51.67;;;38.63;;
19329;SDS011;9799;48.214;16.388;2024-03-02T12:10:43;54.50;;;39.93;;
19329;SDS011;9799;48.214;16.388;2024-03-02T12:14:18;54.03;;;39.23;;
19329;SDS011;9799;48.214;16.388;2024-03-02T12:17:39;52.03;;;39.93;;
19329;SDS011;9799;48.214;16.388;2024-03-02T12:21:00;54.37;;;40.47;;
19329;SDS011;9799;48.214;16.388;2024-03-02T12:24:23;54.13;;;39.40;;
19329;SDS011;9799;48.214;16.388;2024-03-02T12:27:46;56.93;;;41.93;;
19329;SDS011;9799;48.214;16.388;2024-03-02T12:31:11;49.97;;;39.70;;
19329;SDS011;9799;48.214;16.388;2024-03-02T12:34:32;57.37;;;41.83;;
19329;SDS011;9799;48.214;16.388;2024-03-02T12:37:53;54.73;;;41.13;;
19329;SDS011;9799;48.214;16.388;2024-03-02T12:41:15;53.87;;;40.77;;
19329;SDS011;9799;48.214;16.388;2024-03-02T12:44:36;50.93;;;37.90;;
19329;SDS011;9799;48.214;16.388;2024-03-02T12:47:59;49.10;;;37.50;;
19329;SDS011;9799;48.214;16.388;2024-03-02T12:51:21;49.23;;;37.53;;
19329;SDS011;9799;48.214;16.388;2024-03-02T12:54:42;51.13;;;39.23;;
19329;SDS011;9799;48.214;16.388;2024-03-02T12:58:03;46.90;;;37.00;;
19329;SDS011;9799;48.214;16.388;2024-03-02T13:01:25;46.23;;;36.23;;
19329;SDS011;9799;48.214;16.388;2024-03-02T13:04:53;47.07;;;34.70;;
19329;SDS011;9799;48.214;16.388;2024-03-02T13:08:14;46.17;;;35.10;;
19329;SDS011;9799;48.214;16.388;2024-03-02T13:11:36;49.73;;;35.73;;
19329;SDS011;9799;48.214;16.388;2024-03-02T13:14:57;45.27;;;33.87;;
19329;SDS011;9799;48.214;16.388;2024-03-02T13:18:19;45.07;;;35.20;;
19329;SDS011;9799;48.214;16.388;2024-03-02T13:21:41;51.37;;;35.27;;
19329;SDS011;9799;48.214;16.388;2024-03-02T13:25:03;45.33;;;34.43;;
19329;SDS011;9799;48.214;16.388;2024-03-02T13:28:25;42.30;;;34.37;;
19329;SDS011;9799;48.214;16.388;2024-03-02T13:31:46;46.80;;;34.37;;
19329;SDS011;9799;48.214;16.388;2024-03-02T13:35:07;50.10;;;36.53;;
19329;SDS011;9799;48.214;16.388;2024-03-02T13:38:32;46.47;;;33.47;;
19329;SDS011;9799;48.214;16.388;2024-03-02T13:41:53;44.93;;;35.90;;
19329;SDS011;9799;48.214;16.388;2024-03-02T13:45:22;42.00;;;34.33;;
19329;SDS011;9799;48.214;16.388;2024-03-02T13:48:43;43.53;;;34.70;;
19329;SDS011;9799;48.214;16.388;2024-03-02T13:52:04;42.53;;;33.30;;
19329;SDS011;9799;48.214;16.388;2024-03-02T13:55:31;44.93;;;34.63;;
19329;SDS011;9799;48.214;16.388;2024-03-02T13:58:52;44.50;;;33.93;;
19329;SDS011;9799;48.214;16.388;2024-03-02T14:02:14;44.23;;;33.53;;
19329;SDS011;9799;48.214;16.388;2024-03-02T14:05:36;42.83;;;34.00;;
19329;SDS011;9799;48.214;16.388;2024-03-02T14:08:57;47.27;;;35.27;;
19329;SDS011;9799;48.214;16.388;2024-03-02T14:12:20;47.03;;;35.57;;
19329;SDS011;9799;48.214;16.388;2024-03-02T14:15:42;46.03;;;36.07;;
19329;SDS011;9799;48.214;16.388;2024-03-02T14:19:03;50.20;;;37.10;;
19329;SDS011;9799;48.214;16.388;2024-03-02T14:22:24;46.53;;;36.57;;
19329;SDS011;9799;48.214;16.388;2024-03-02T14:25:45;44.13;;;34.57;;
19329;SDS011;9799;48.214;16.388;2024-03-02T14:29:08;47.20;;;37.20;;
19329;SDS011;9799;48.214;16.388;2024-03-02T14:32:29;48.47;;;38.93;;
19329;SDS011;9799;48.214;16.388;2024-03-02T14:35:50;51.20;;;37.17;;
19329;SDS011;9799;48.214;16.388;2024-03-02T14:39:12;51.60;;;37.77;;
19329;SDS011;9799;48.214;16.388;2024-03-02T14:42:33;50.90;;;36.07;;
19329;SDS011;9799;48.214;16.388;2024-03-02T14:45:56;47.40;;;36.17;;
19329;SDS011;9799;48.214;16.388;2024-03-02T14:49:17;47.07;;;36.70;;
19329;SDS011;9799;48.214;16.388;2024-03-02T14:52:39;48.93;;;35.83;;
19329;SDS011;9799;48.214;16.388;2024-03-02T14:56:00;45.10;;;35.77;;
19329;SDS011;9799;48.214;16.388;2024-03-02T14:59:21;50.53;;;37.77;;
19329;SDS011;9799;48.214;16.388;2024-03-02T15:02:43;52.73;;;38.50;;
19329;SDS011;9799;48.214;16.388;2024-03-02T15:06:05;48.70;;;37.10;;
19329;SDS011;9799;48.214;16.388;2024-03-02T15:09:27;49.83;;;39.40;;
19329;SDS011;9799;48.214;16.388;2024-03-02T15:12:48;52.67;;;37.67;;
19329;SDS011;9799;48.214;16.388;2024-03-02T15:16:09;51.70;;;37.63;;
19329;SDS011;9799;48.214;16.388;2024-03-02T15:19:32;48.23;;;37.07;;
19329;SDS011;9799;48.214;16.388;2024-03-02T15:22:53;55.07;;;39.23;;
19329;SDS011;9799;48.214;16.388;2024-03-02T15:26:14;51.50;;;38.73;;
19329;SDS011;9799;48.214;16.388;2024-03-02T15:29:35;46.97;;;35.87;;
19329;SDS011;9799;48.214;16.388;2024-03-02T15:32:56;48.90;;;38.00;;
19329;SDS011;9799;48.214;16.388;2024-03-02T15:36:19;49.20;;;37.23;;
19329;SDS011;9799;48.214;16.388;2024-03-02T15:39:40;48.90;;;38.30;;
19329;SDS011;9799;48.214;16.388;2024-03-02T15:43:03;51.40;;;38.43;;
19329;SDS011;9799;48.214;16.388;2024-03-02T15:46:24;51.90;;;37.70;;
19329;SDS011;9799;48.214;16.388;2024-03-02T15:49:45;48.67;;;36.43;;
19329;SDS011;9799;48.214;16.388;2024-03-02T15:53:08;47.70;;;37.63;;
19329;SDS011;9799;48.214;16.388;2024-03-02T15:56:29;48.87;;;35.10;;
19329;SDS011;9799;48.214;16.388;2024-03-02T15:59:50;45.10;;;34.67;;
19329;SDS011;9799;48.214;16.388;2024-03-02T16:03:12;45.90;;;35.67;;
19329;SDS011;9799;48.214;16.388;2024-03-02T16:06:33;48.30;;;37.73;;
19329;SDS011;9799;48.214;16.388;2024-03-02T16:09:55;50.30;;;35.77;;
19329;SDS011;9799;48.214;16.388;2024-03-02T16:13:16;46.70;;;35.73;;
19329;SDS011;9799;48.214;16.388;2024-03-02T16:16:38;45.73;;;35.13;;
19329;SDS011;9799;48.214;16.388;2024-03-02T16:20:00;42.03;;;33.97;;
19329;SDS011;9799;48.214;16.388;2024-03-02T16:23:25;47.73;;;36.57;;
19329;SDS011;9799;48.214;16.388;2024-03-02T16:26:48;44.57;;;35.03;;
19329;SDS011;9799;48.214;16.388;2024-03-02T16:30:09;49.00;;;33.90;;
19329;SDS011;9799;48.214;16.388;2024-03-02T16:33:30;45.20;;;33.70;;
19329;SDS011;9799;48.214;16.388;2024-03-02T16:36:52;41.60;;;31.87;;
19329;SDS011;9799;48.214;16.388;2024-03-02T16:40:13;37.50;;;30.13;;
19329;SDS011;9799;48.214;16.388;2024-03-02T16:43:36;38.43;;;30.57;;
19329;SDS011;9799;48.214;16.388;2024-03-02T16:46:57;39.30;;;30.53;;
19329;SDS011;9799;48.214;16.388;2024-03-02T16:50:19;42.13;;;31.53;;
19329;SDS011;9799;48.214;16.388;2024-03-02T16:53:40;37.13;;;30.17;;
19329;SDS011;9799;48.214;16.388;2024-03-02T16:57:01;39.57;;;31.63;;
19329;SDS011;9799;48.214;16.388;2024-03-02T17:00:24;38.93;;;31.53;;
19329;SDS011;9799;48.214;16.388;2024-03-02T17:03:45;41.30;;;32.23;;
19329;SDS011;9799;48.214;16.388;2024-03-02T17:07:06;39.47;;;31.93;;
19329;SDS011;9799;48.214;16.388;2024-03-02T17:10:27;40.27;;;32.20;;
19329;SDS011;9799;48.214;16.388;2024-03-02T17:13:49;38.97;;;31.30;;
19329;SDS011;9799;48.214;16.388;2024-03-02T17:17:17;43.50;;;31.37;;
19329;SDS011;9799;48.214;16.388;2024-03-02T17:20:39;40.00;;;31.67;;
19329;SDS011;9799;48.214;16.388;2024-03-02T17:24:00;37.73;;;31.10;;
19329;SDS011;9799;48.214;16.388;2024-03-02T17:27:22;37.20;;;29.90;;
19329;SDS011;9799;48.214;16.388;2024-03-02T17:30:43;37.70;;;29.77;;
19329;SDS011;9799;48.214;16.388;2024-03-02T17:34:06;40.93;;;31.60;;
19329;SDS011;9799;48.214;16.388;2024-03-02T17:37:27;36.83;;;29.97;;
19329;SDS011;9799;48.214;16.388;2024-03-02T17:40:49;37.70;;;30.80;;
19329;SDS011;9799;48.214;16.388;2024-03-02T17:44:10;37.03;;;29.97;;
19329;SDS011;9799;48.214;16.388;2024-03-02T17:47:32;46.97;;;33.33;;
19329;SDS011;9799;48.214;16.388;2024-03-02T17:50:54;43.37;;;31.83;;
19329;SDS011;9799;48.214;16.388;2024-03-02T17:54:16;40.73;;;31.20;;
19329;SDS011;9799;48.214;16.388;2024-03-02T17:57:37;44.30;;;31.80;;
19329;SDS011;9799;48.214;16.388;2024-03-02T18:00:58;39.20;;;30.07;;
19329;SDS011;9799;48.214;16.388;2024-03-02T18:04:19;39.83;;;31.27;;
19329;SDS011;9799;48.214;16.388;2024-03-02T18:07:43;41.50;;;30.87;;
19329;SDS011;9799;48.214;16.388;2024-03-02T18:11:04;35.80;;;28.53;;
19329;SDS011;9799;48.214;16.388;2024-03-02T18:14:26;41.27;;;31.20;;
19329;SDS011;9799;48.214;16.388;2024-03-02T18:17:47;36.97;;;29.23;;
19329;SDS011;9799;48.214;16.388;2024-03-02T18:21:08;46.97;;;31.63;;
19329;SDS011;9799;48.214;16.388;2024-03-02T18:24:31;41.67;;;31.40;;
19329;SDS011;9799;48.214;16.388;2024-03-02T18:27:52;38.33;;;29.80;;
19329;SDS011;9799;48.214;16.388;2024-03-02T18:31:14;37.97;;;28.97;;
19329;SDS011;9799;48.214;16.388;2024-03-02T18:34:38;39.13;;;29.80;;
19329;SDS011;9799;48.214;16.388;2024-03-02T18:37:59;38.10;;;29.93;;
19329;SDS011;9799;48.214;16.388;2024-03-02T18:41:22;37.93;;;29.03;;
19329;SDS011;9799;48.214;16.388;2024-03-02T18:44:44;33.20;;;26.37;;
19329;SDS011;9799;48.214;16.388;2024-03-02T18:48:06;41.07;;;27.47;;
19329;SDS011;9799;48.214;16.388;2024-03-02T18:51:28;34.17;;;27.33;;
19329;SDS011;9799;48.214;16.388;2024-03-02T18:54:49;34.80;;;27.87;;
19329;SDS011;9799;48.214;16.388;2024-03-02T18:58:12;35.93;;;27.17;;
19329;SDS011;9799;48.214;16.388;2024-03-02T19:01:33;34.53;;;26.47;;
19329;SDS011;9799;48.214;16.388;2024-03-02T19:04:54;37.17;;;28.00;;
19329;SDS011;9799;48.214;16.388;2024-03-02T19:08:15;37.60;;;28.07;;
19329;SDS011;9799;48.214;16.388;2024-03-02T19:11:38;36.70;;;28.13;;
19329;SDS011;9799;48.214;16.388;2024-03-02T19:15:01;32.93;;;26.70;;
19329;SDS011;9799;48.214;16.388;2024-03-02T19:18:23;37.03;;;27.83;;
19329;SDS011;9799;48.214;16.388;2024-03-02T19:21:44;33.43;;;26.60;;
19329;SDS011;9799;48.214;16.388;2024-03-02T19:25:08;33.93;;;27.90;;
19329;SDS011;9799;48.214;16.388;2024-03-02T19:28:32;36.37;;;28.60;;
19329;SDS011;9799;48.214;16.388;2024-03-02T19:31:55;32.53;;;26.43;;
19329;SDS011;9799;48.214;16.388;2024-03-02T19:35:16;37.90;;;27.63;;
19329;SDS011;9799;48.214;16.388;2024-03-02T19:38:37;34.47;;;28.27;;
19329;SDS011;9799;48.214;16.388;2024-03-02T19:41:59;33.00;;;27.23;;